createdAt,value
2023-03-11T00:00:24.385Z,2.70
2023-03-11T00:02:56.246Z,2.70
2023-03-11T00:05:26.647Z,2.70
2023-03-11T00:07:54.112Z,2.70
2023-03-11T00:10:30.447Z,2.70
2023-03-11T00:13:01.094Z,2.70
2023-03-11T00:15:29.371Z,2.70
2023-03-11T00:17:57.263Z,2.70
2023-03-11T00:20:33.019Z,2.70
2023-03-11T00:23:00.525Z,2.70
2023-03-11T00:25:29.640Z,2.70
2023-03-11T00:27:56.845Z,2.70
2023-03-11T00:30:24.682Z,2.70
2023-03-11T00:32:53.751Z,2.70
2023-03-11T00:35:25.334Z,2.60
2023-03-11T00:37:55.348Z,2.60
2023-03-11T00:40:23.556Z,2.50
2023-03-11T00:42:50.270Z,2.50
2023-03-11T00:45:17.681Z,2.40
2023-03-11T00:47:44.670Z,2.40
2023-03-11T00:50:17.850Z,2.30
2023-03-11T00:52:45.936Z,2.30
2023-03-11T00:55:15.527Z,2.20
2023-03-11T00:57:42.779Z,2.20
2023-03-11T01:00:14.551Z,2.20
2023-03-11T01:02:41.297Z,2.10
2023-03-11T01:05:08.718Z,2.10
2023-03-11T01:07:35.432Z,2.10
2023-03-11T01:10:03.652Z,2.10
2023-03-11T01:12:30.450Z,2.10
2023-03-11T01:14:57.183Z,2.10
2023-03-11T01:17:23.960Z,2.10
2023-03-11T01:19:50.620Z,2.00
2023-03-11T01:22:17.707Z,1.90
2023-03-11T01:24:44.749Z,1.90
2023-03-11T01:27:11.434Z,1.90
2023-03-11T01:29:38.095Z,1.90
2023-03-11T01:32:05.082Z,1.90
2023-03-11T01:34:33.436Z,1.80
2023-03-11T01:37:00.280Z,1.80
2023-03-11T01:39:26.912Z,1.80
2023-03-11T01:41:53.729Z,1.80
2023-03-11T01:44:20.361Z,1.70
2023-03-11T01:46:52.985Z,1.70
2023-03-11T01:49:21.627Z,1.60
2023-03-11T01:51:52.016Z,1.60
2023-03-11T01:54:29.087Z,1.60
2023-03-11T01:56:56.237Z,1.60
2023-03-11T01:59:28.845Z,1.60
2023-03-11T02:01:59.261Z,1.60
2023-03-11T02:04:28.537Z,1.60
2023-03-11T02:06:56.533Z,1.50
2023-03-11T02:09:24.167Z,1.50
2023-03-11T02:11:51.604Z,1.50
2023-03-11T02:14:18.499Z,1.50
2023-03-11T02:16:45.227Z,1.50
2023-03-11T02:19:57.752Z,1.50
2023-03-11T02:22:24.820Z,1.50
2023-03-11T02:25:20.250Z,1.50
2023-03-11T02:27:49.713Z,1.40
2023-03-11T02:30:17.874Z,1.40
2023-03-11T02:32:48.448Z,1.40
2023-03-11T02:35:16.245Z,1.40
2023-03-11T02:37:51.596Z,1.30
2023-03-11T02:40:24.160Z,1.30
2023-03-11T02:42:53.880Z,1.30
2023-03-11T02:45:24.578Z,1.30
2023-03-11T02:47:54.523Z,1.20
2023-03-11T02:50:21.798Z,1.20
2023-03-11T02:52:49.496Z,1.20
2023-03-11T02:55:18.842Z,1.20
2023-03-11T02:57:45.929Z,1.20
2023-03-11T03:00:15.914Z,1.30
2023-03-11T03:02:43.937Z,1.20
2023-03-11T03:05:11.459Z,1.30
2023-03-11T03:07:38.193Z,1.30
2023-03-11T03:10:06.718Z,1.40
2023-03-11T03:12:33.353Z,1.30
2023-03-11T03:15:00.196Z,1.30
2023-03-11T03:17:26.899Z,1.30
2023-03-11T03:19:53.557Z,1.40
2023-03-11T03:22:20.208Z,1.40
2023-03-11T03:24:47.004Z,1.40
2023-03-11T03:27:13.646Z,1.40
2023-03-11T03:29:40.328Z,1.40
2023-03-11T03:32:07.221Z,1.30
2023-03-11T03:34:34.029Z,1.40
2023-03-11T03:37:00.746Z,1.40
2023-03-11T03:39:29.377Z,1.40
2023-03-11T03:41:57.252Z,1.40
2023-03-11T03:44:23.998Z,1.40
2023-03-11T03:46:50.746Z,1.50
2023-03-11T03:49:17.397Z,1.50
2023-03-11T03:51:44.101Z,1.50
2023-03-11T03:54:10.765Z,1.60
2023-03-11T03:56:37.405Z,1.60
2023-03-11T03:59:04.256Z,1.50
2023-03-11T04:01:30.895Z,1.60
2023-03-11T04:03:57.527Z,1.60
2023-03-11T04:06:26.472Z,1.60
2023-03-11T04:08:54.087Z,1.50
2023-03-11T04:11:21.814Z,1.50
2023-03-11T04:13:48.716Z,1.40
2023-03-11T04:16:25.185Z,1.40
2023-03-11T04:18:51.927Z,1.30
2023-03-11T04:21:18.598Z,1.30
2023-03-11T04:23:45.401Z,1.30
2023-03-11T04:26:12.049Z,1.20
2023-03-11T04:28:38.719Z,1.10
2023-03-11T04:31:05.749Z,1.10
2023-03-11T04:33:32.793Z,1.00
2023-03-11T04:35:59.687Z,0.90
2023-03-11T04:38:26.377Z,0.90
2023-03-11T04:40:53.047Z,0.80
2023-03-11T04:43:19.676Z,0.80
2023-03-11T04:45:50.439Z,0.80
2023-03-11T04:48:17.051Z,0.80
2023-03-11T04:50:43.677Z,0.70
2023-03-11T04:53:10.504Z,0.60
2023-03-11T04:55:37.122Z,0.60
2023-03-11T04:58:04.039Z,0.60
2023-03-11T05:00:30.728Z,0.60
2023-03-11T05:02:57.439Z,0.60
2023-03-11T05:05:24.175Z,0.50
2023-03-11T05:07:50.800Z,0.50
2023-03-11T05:10:22.326Z,0.40
2023-03-11T05:12:52.558Z,0.40
2023-03-11T05:15:19.783Z,0.30
2023-03-11T05:17:46.961Z,0.30
2023-03-11T05:20:15.695Z,0.30
2023-03-11T05:22:42.573Z,0.30
2023-03-11T05:25:09.760Z,0.30
2023-03-11T05:27:36.499Z,0.30
2023-03-11T05:30:03.943Z,0.30
2023-03-11T05:32:30.614Z,0.20
2023-03-11T05:34:57.256Z,0.30
2023-03-11T05:37:23.921Z,0.20
2023-03-11T05:39:52.183Z,0.20
2023-03-11T05:42:21.267Z,0.20
2023-03-11T05:44:48.415Z,0.20
2023-03-11T05:47:17.204Z,0.20
2023-03-11T05:49:44.025Z,0.20
2023-03-11T05:52:10.720Z,0.20
2023-03-11T05:54:37.525Z,0.20
2023-03-11T05:57:04.685Z,0.20
2023-03-11T05:59:32.536Z,0.10
2023-03-11T06:01:59.243Z,0.10
2023-03-11T06:04:28.619Z,0.20
2023-03-11T06:06:55.438Z,0.10
2023-03-11T06:09:22.086Z,0.10
2023-03-11T06:11:51.799Z,0.10
2023-03-11T06:14:18.560Z,0.10
2023-03-11T06:16:45.250Z,0.10
2023-03-11T06:19:12.794Z,0.10
2023-03-11T06:21:39.605Z,0.10
2023-03-11T06:24:07.171Z,0.10
2023-03-11T06:26:33.847Z,0.10
2023-03-11T06:29:00.459Z,0.10
2023-03-11T06:31:29.358Z,0.10
2023-03-11T06:33:56.258Z,0.10
2023-03-11T06:36:23.522Z,0.00
2023-03-11T06:38:52.301Z,0.10
2023-03-11T06:41:19.035Z,0.10
2023-03-11T06:43:45.659Z,0.10
2023-03-11T06:46:20.957Z,0.10
2023-03-11T06:48:51.705Z,0.00
2023-03-11T06:51:19.501Z,0.00
2023-03-11T06:53:53.119Z,0.00
2023-03-11T06:56:22.462Z,0.10
2023-03-11T06:58:49.741Z,0.30
2023-03-11T07:01:20.450Z,0.50
2023-03-11T07:03:48.401Z,0.60
2023-03-11T07:06:17.752Z,0.50
2023-03-11T07:08:45.785Z,0.50
2023-03-11T07:11:16.858Z,0.50
2023-03-11T07:13:44.193Z,0.60
2023-03-11T07:16:15.647Z,0.60
2023-03-11T07:18:46.003Z,0.70
2023-03-11T07:21:16.535Z,1.00
2023-03-11T07:23:45.819Z,1.20
2023-03-11T07:26:15.363Z,1.50
2023-03-11T07:28:42.502Z,1.60
2023-03-11T07:31:10.794Z,2.00
2023-03-11T07:33:38.349Z,2.30
2023-03-11T07:36:07.293Z,2.30
2023-03-11T07:38:34.915Z,2.60
2023-03-11T07:41:02.046Z,2.60
2023-03-11T07:43:28.793Z,2.60
2023-03-11T07:46:13.931Z,2.70
2023-03-11T07:48:40.821Z,2.90
2023-03-11T07:51:15.247Z,2.80
2023-03-11T07:53:44.247Z,2.50
2023-03-11T07:56:12.639Z,2.50
2023-03-11T07:58:40.001Z,2.70
2023-03-11T08:01:10.543Z,2.40
2023-03-11T08:03:38.300Z,2.40
2023-03-11T08:06:18.708Z,2.80
2023-03-11T08:08:47.072Z,2.50
2023-03-11T08:11:14.653Z,2.20
2023-03-11T08:13:44.545Z,2.80
2023-03-11T08:16:13.960Z,3.30
2023-03-11T08:18:40.781Z,3.40
2023-03-11T08:21:10.163Z,3.40
2023-03-11T08:23:47.626Z,3.20
2023-03-11T08:26:16.917Z,3.00
2023-03-11T08:28:44.083Z,2.80
2023-03-11T08:31:24.112Z,2.80
2023-03-11T08:33:52.171Z,2.70
2023-03-11T08:36:19.677Z,2.80
2023-03-11T08:38:46.950Z,2.80
2023-03-11T08:41:14.890Z,2.70
2023-03-11T08:43:42.278Z,2.70
2023-03-11T08:46:09.165Z,3.10
2023-03-11T08:48:37.046Z,3.10
2023-03-11T08:51:10.017Z,3.30
2023-03-11T08:53:37.678Z,3.40
2023-03-11T08:56:06.030Z,3.50
2023-03-11T08:58:32.764Z,3.10
2023-03-11T09:00:59.598Z,2.90
2023-03-11T09:03:26.275Z,2.70
2023-03-11T09:06:01.738Z,3.00
2023-03-11T09:08:29.256Z,3.00
2023-03-11T09:10:56.085Z,3.00
2023-03-11T09:13:23.190Z,3.10
2023-03-11T09:15:52.851Z,3.10
2023-03-11T09:18:19.824Z,3.00
2023-03-11T09:20:46.727Z,3.10
2023-03-11T09:23:15.967Z,3.20
2023-03-11T09:25:42.944Z,3.20
2023-03-11T09:28:09.594Z,3.30
2023-03-11T09:30:36.245Z,3.20
2023-03-11T09:33:02.981Z,3.50
2023-03-11T09:35:29.960Z,3.60
2023-03-11T09:37:56.634Z,3.40
2023-03-11T09:40:25.528Z,3.30
2023-03-11T09:43:20.336Z,3.90
2023-03-11T09:46:01.534Z,3.90
2023-03-11T09:48:43.121Z,4.10
2023-03-11T09:51:17.946Z,4.00
2023-03-11T09:53:46.451Z,4.20
2023-03-11T09:56:19.942Z,4.00
2023-03-11T09:58:52.463Z,3.80
2023-03-11T10:01:37.456Z,3.80
2023-03-11T10:04:27.846Z,4.00
2023-03-11T10:06:55.530Z,4.10
2023-03-11T10:09:31.377Z,3.70
2023-03-11T10:12:20.462Z,3.60
2023-03-11T10:15:30.230Z,3.30
2023-03-11T10:17:59.598Z,3.50
2023-03-11T10:20:43.668Z,3.40
2023-03-11T10:23:24.478Z,3.20
2023-03-11T10:26:07.991Z,3.00
2023-03-11T10:28:43.742Z,3.30
2023-03-11T10:31:25.347Z,3.20
2023-03-11T10:34:03.053Z,3.30
2023-03-11T10:36:53.847Z,3.30
2023-03-11T10:39:21.749Z,3.30
2023-03-11T10:42:04.600Z,3.30
2023-03-11T10:44:42.582Z,3.50
2023-03-11T10:47:23.036Z,3.40
2023-03-11T10:49:50.237Z,3.40
2023-03-11T10:52:17.289Z,3.70
2023-03-11T10:54:47.899Z,3.70
2023-03-11T10:57:29.287Z,3.70
2023-03-11T10:59:58.325Z,3.40
2023-03-11T11:02:43.266Z,3.50
2023-03-11T11:05:22.714Z,2.90
2023-03-11T11:07:53.125Z,3.00
2023-03-11T11:10:27.769Z,3.20
2023-03-11T11:12:57.707Z,3.30
2023-03-11T11:15:27.436Z,3.30
2023-03-11T11:18:00.498Z,3.40
2023-03-11T11:20:29.157Z,3.80
2023-03-11T11:23:01.372Z,4.10
2023-03-11T11:25:36.016Z,4.30
2023-03-11T11:28:20.910Z,4.40
2023-03-11T11:30:56.930Z,4.50
2023-03-11T11:33:28.466Z,4.30
2023-03-11T11:35:59.547Z,4.00
2023-03-11T11:38:28.336Z,4.30
2023-03-11T11:40:58.022Z,4.40
2023-03-11T11:43:56.505Z,4.90
2023-03-11T11:46:42.447Z,5.10
2023-03-11T11:49:23.044Z,4.60
2023-03-11T11:52:06.718Z,4.80
2023-03-11T11:55:02.724Z,4.70
2023-03-11T11:57:29.896Z,4.50
2023-03-11T11:59:57.586Z,4.50
2023-03-11T12:02:57.016Z,4.80
2023-03-11T12:05:32.747Z,4.90
2023-03-11T12:08:32.096Z,4.50
2023-03-11T12:11:06.335Z,4.60
2023-03-11T12:14:04.391Z,4.40
2023-03-11T12:16:43.122Z,4.30
2023-03-11T12:19:15.255Z,4.20
2023-03-11T12:22:10.471Z,4.10
2023-03-11T12:25:13.713Z,4.20
2023-03-11T12:27:47.620Z,4.30
2023-03-11T12:30:22.445Z,4.30
2023-03-11T12:33:26.929Z,4.10
2023-03-11T12:35:56.829Z,4.00
2023-03-11T12:38:39.892Z,4.10
2023-03-11T12:41:13.922Z,4.40
2023-03-11T12:43:40.500Z,4.50
2023-03-11T12:46:17.804Z,5.00
2023-03-11T12:49:10.226Z,5.00
2023-03-11T12:51:39.025Z,5.00
2023-03-11T12:54:23.959Z,5.10
2023-03-11T12:56:57.314Z,4.70
2023-03-11T12:59:32.733Z,4.70
2023-03-11T13:02:17.741Z,4.80
2023-03-11T13:04:59.014Z,4.90
2023-03-11T13:07:49.074Z,5.00
2023-03-11T13:10:20.486Z,5.10
2023-03-11T13:12:53.767Z,4.90
2023-03-11T13:15:20.392Z,4.90
2023-03-11T13:18:15.283Z,5.20
2023-03-11T13:20:44.321Z,4.80
2023-03-11T13:23:40.513Z,4.90
2023-03-11T13:26:29.341Z,4.80
2023-03-11T13:29:02.829Z,4.90
2023-03-11T13:32:17.169Z,4.90
2023-03-11T13:35:19.297Z,5.00
2023-03-11T13:38:06.058Z,4.70
2023-03-11T13:40:38.581Z,5.00
2023-03-11T13:43:16.632Z,5.10
2023-03-11T13:45:58.004Z,5.10
2023-03-11T13:48:44.790Z,5.00
2023-03-11T13:51:25.547Z,4.90
2023-03-11T13:54:02.038Z,5.00
2023-03-11T13:56:32.721Z,5.00
2023-03-11T13:59:22.119Z,4.70
2023-03-11T14:01:53.707Z,4.70
2023-03-11T14:04:26.705Z,4.60
2023-03-11T14:06:53.563Z,4.70
2023-03-11T14:09:22.517Z,4.60
2023-03-11T14:11:50.150Z,4.60
2023-03-11T14:14:28.109Z,4.40
2023-03-11T14:16:56.114Z,4.70
2023-03-11T14:19:23.413Z,4.70
2023-03-11T14:21:51.527Z,4.80
2023-03-11T14:24:24.303Z,4.90
2023-03-11T14:26:56.303Z,4.90
2023-03-11T14:29:45.270Z,4.90
2023-03-11T14:32:34.197Z,5.00
2023-03-11T14:35:01.325Z,5.10
2023-03-11T14:37:35.512Z,4.90
2023-03-11T14:40:02.768Z,4.90
2023-03-11T14:42:39.639Z,4.90
2023-03-11T14:45:10.912Z,4.90
2023-03-11T14:47:43.867Z,4.90
2023-03-11T14:50:19.227Z,4.80
2023-03-11T14:52:51.831Z,4.70
2023-03-11T14:55:32.033Z,4.70
2023-03-11T14:58:10.135Z,4.50
2023-03-11T15:00:44.512Z,4.60
2023-03-11T15:03:31.583Z,4.50
2023-03-11T15:06:06.363Z,4.40
2023-03-11T15:08:44.130Z,4.30
2023-03-11T15:11:10.726Z,4.40
2023-03-11T15:13:39.283Z,4.50
2023-03-11T15:16:20.926Z,4.50
2023-03-11T15:18:47.962Z,4.50
2023-03-11T15:21:17.920Z,4.50
2023-03-11T15:24:02.086Z,4.40
2023-03-11T15:26:31.803Z,4.30
2023-03-11T15:29:16.629Z,4.40
2023-03-11T15:31:46.625Z,4.50
2023-03-11T15:34:19.081Z,4.50
2023-03-11T15:37:18.520Z,4.50
2023-03-11T15:39:46.471Z,4.50
2023-03-11T15:42:18.685Z,4.50
2023-03-11T15:45:00.251Z,4.50
2023-03-11T15:47:26.928Z,4.50
2023-03-11T15:49:53.622Z,4.50
2023-03-11T15:52:20.542Z,4.50
2023-03-11T15:54:55.465Z,4.50
2023-03-11T15:57:27.898Z,4.50
2023-03-11T15:59:57.062Z,4.50
2023-03-11T16:02:29.352Z,4.40
2023-03-11T16:04:57.323Z,4.30
2023-03-11T16:07:38.606Z,4.20
2023-03-11T16:10:07.790Z,4.20
2023-03-11T16:12:34.515Z,4.10
2023-03-11T16:15:02.220Z,4.10
2023-03-11T16:17:42.973Z,3.90
2023-03-11T16:20:10.207Z,3.80
2023-03-11T16:22:38.024Z,3.70
2023-03-11T16:25:09.511Z,3.70
2023-03-11T16:27:36.277Z,3.70
2023-03-11T16:30:03.700Z,3.70
2023-03-11T16:32:30.428Z,3.80
2023-03-11T16:34:57.117Z,3.70
2023-03-11T16:37:23.735Z,3.80
2023-03-11T16:39:50.391Z,3.80
2023-03-11T16:42:23.932Z,3.70
2023-03-11T16:44:50.667Z,3.60
2023-03-11T16:47:17.453Z,3.60
2023-03-11T16:49:44.143Z,3.60
2023-03-11T16:52:10.987Z,3.50
2023-03-11T16:54:37.676Z,3.50
2023-03-11T16:57:05.878Z,3.40
2023-03-11T16:59:32.508Z,3.40
2023-03-11T17:01:59.475Z,3.40
2023-03-11T17:04:26.192Z,3.40
2023-03-11T17:06:52.832Z,3.30
2023-03-11T17:09:20.505Z,3.20
2023-03-11T17:11:49.804Z,3.10
2023-03-11T17:14:17.471Z,3.10
2023-03-11T17:16:45.212Z,3.00
2023-03-11T17:19:12.058Z,2.90
2023-03-11T17:21:39.141Z,2.90
2023-03-11T17:24:07.171Z,2.80
2023-03-11T17:26:33.930Z,2.80
2023-03-11T17:29:00.876Z,2.80
2023-03-11T17:31:27.669Z,2.70
2023-03-11T17:33:59.219Z,2.70
2023-03-11T17:36:26.715Z,2.70
2023-03-11T17:38:54.557Z,2.70
2023-03-11T17:41:22.190Z,2.70
2023-03-11T17:43:51.311Z,2.70
2023-03-11T17:46:19.611Z,2.60
2023-03-11T17:48:48.083Z,2.60
2023-03-11T17:51:20.758Z,2.50
2023-03-11T17:53:49.287Z,2.50
2023-03-11T17:56:19.168Z,2.50
2023-03-11T17:58:49.608Z,2.50
2023-03-11T18:01:19.584Z,2.50
2023-03-11T18:03:47.147Z,2.50
2023-03-11T18:06:14.518Z,2.50
2023-03-11T18:08:42.250Z,2.40
2023-03-11T18:11:13.931Z,2.30
2023-03-11T18:13:41.169Z,2.30
2023-03-11T18:16:17.480Z,2.30
2023-03-11T18:18:44.874Z,2.20
2023-03-11T18:21:14.549Z,2.20
2023-03-11T18:23:41.733Z,2.20
2023-03-11T18:26:10.279Z,2.20
2023-03-11T18:28:37.337Z,2.20
2023-03-11T18:31:13.658Z,2.20
2023-03-11T18:33:41.469Z,2.10
2023-03-11T18:36:26.959Z,2.10
2023-03-11T18:38:55.328Z,2.10
2023-03-11T18:41:24.205Z,2.20
2023-03-11T18:43:57.240Z,2.10
2023-03-11T18:46:25.443Z,2.10
2023-03-11T18:48:59.267Z,2.20
2023-03-11T18:51:27.568Z,2.20
2023-03-11T18:53:54.363Z,2.20
2023-03-11T18:56:21.359Z,2.10
2023-03-11T18:58:48.134Z,2.10
2023-03-11T19:01:17.553Z,2.10
2023-03-11T19:03:48.970Z,2.10
2023-03-11T19:06:16.575Z,2.10
2023-03-11T19:08:43.822Z,2.10
2023-03-11T19:11:13.958Z,2.00
2023-03-11T19:13:47.135Z,2.10
2023-03-11T19:16:16.420Z,2.10
2023-03-11T19:18:43.088Z,2.10
2023-03-11T19:21:12.141Z,2.00
2023-03-11T19:23:38.945Z,2.00
2023-03-11T19:26:06.380Z,1.90
2023-03-11T19:28:33.242Z,2.00
2023-03-11T19:31:00.296Z,1.90
2023-03-11T19:33:27.605Z,1.90
2023-03-11T19:35:56.837Z,2.00
2023-03-11T19:38:23.845Z,1.90
2023-03-11T19:41:20.393Z,1.90
2023-03-11T19:43:48.160Z,1.90
2023-03-11T19:46:17.758Z,1.80
2023-03-11T19:48:44.605Z,1.80
2023-03-11T19:51:14.969Z,1.80
2023-03-11T19:53:41.871Z,1.80
2023-03-11T19:56:09.461Z,1.70
2023-03-11T19:58:36.667Z,1.70
2023-03-11T20:01:03.819Z,1.70
2023-03-11T20:03:30.666Z,1.70
2023-03-11T20:06:04.501Z,1.70
2023-03-11T20:08:39.302Z,1.70
2023-03-11T20:11:06.474Z,1.70
2023-03-11T20:13:34.436Z,1.60
2023-03-11T20:16:10.464Z,1.70
2023-03-11T20:18:37.316Z,1.70
2023-03-11T20:21:10.470Z,1.60
2023-03-11T20:23:38.456Z,1.50
2023-03-11T20:26:11.682Z,1.50
2023-03-11T20:28:38.716Z,1.40
2023-03-11T20:31:12.807Z,1.40
2023-03-11T20:33:39.880Z,1.40
2023-03-11T20:36:09.360Z,1.30
2023-03-11T20:38:36.636Z,1.30
2023-03-11T20:41:06.196Z,1.20
2023-03-11T20:43:34.260Z,1.20
2023-03-11T20:46:01.233Z,1.20
2023-03-11T20:48:28.181Z,1.10
2023-03-11T20:50:54.868Z,1.10
2023-03-11T20:53:22.183Z,1.10
2023-03-11T20:55:48.877Z,1.00
2023-03-11T20:58:15.687Z,1.00
2023-03-11T21:00:42.445Z,1.00
2023-03-11T21:03:09.224Z,1.00
2023-03-11T21:05:37.576Z,1.00
2023-03-11T21:08:05.121Z,0.90
2023-03-11T21:10:32.216Z,0.90
2023-03-11T21:12:58.974Z,0.90
2023-03-11T21:15:26.139Z,0.80
2023-03-11T21:17:52.898Z,0.80
2023-03-11T21:20:19.828Z,0.80
2023-03-11T21:22:46.519Z,0.80
2023-03-11T21:25:13.257Z,0.80
2023-03-11T21:27:39.967Z,0.80
2023-03-11T21:30:08.191Z,0.80
2023-03-11T21:32:35.039Z,0.70
2023-03-11T21:35:02.134Z,0.70
2023-03-11T21:37:29.014Z,0.70
2023-03-11T21:39:56.116Z,0.70
2023-03-11T21:42:24.799Z,0.60
2023-03-11T21:44:51.834Z,0.60
2023-03-11T21:47:19.383Z,0.60
2023-03-11T21:49:46.023Z,0.50
2023-03-11T21:52:12.691Z,0.50
2023-03-11T21:54:39.456Z,0.50
2023-03-11T21:57:06.336Z,0.50
2023-03-11T21:59:33.171Z,0.40
2023-03-11T22:02:02.988Z,0.30
2023-03-11T22:04:30.897Z,0.30
2023-03-11T22:06:57.766Z,0.30
2023-03-11T22:09:25.814Z,0.30
2023-03-11T22:11:52.766Z,0.30
2023-03-11T22:14:19.759Z,0.20
2023-03-11T22:16:47.700Z,0.20
2023-03-11T22:19:14.676Z,0.20
2023-03-11T22:21:41.856Z,0.20
2023-03-11T22:24:08.912Z,0.20
2023-03-11T22:26:35.990Z,0.20
2023-03-11T22:29:04.075Z,0.10
2023-03-11T22:31:31.224Z,0.10
2023-03-11T22:33:57.957Z,0.10
2023-03-11T22:36:24.749Z,0.00
2023-03-11T22:38:51.409Z,0.00
2023-03-11T22:41:19.606Z,-0.10
2023-03-11T22:43:47.192Z,-0.10
2023-03-11T22:46:14.325Z,-0.10
2023-03-11T22:48:40.971Z,-0.10
2023-03-11T22:51:07.815Z,-0.20
2023-03-11T22:53:34.770Z,-0.20
2023-03-11T22:56:10.659Z,-0.30
2023-03-11T22:58:37.362Z,-0.30
2023-03-11T23:01:04.681Z,-0.40
2023-03-11T23:03:32.694Z,-0.40
2023-03-11T23:06:00.767Z,-0.40
2023-03-11T23:08:27.909Z,-0.50
2023-03-11T23:10:54.754Z,-0.50
2023-03-11T23:13:21.416Z,-0.60
2023-03-11T23:15:48.490Z,-0.60
2023-03-11T23:18:16.122Z,-0.60
2023-03-11T23:20:43.623Z,-0.60
2023-03-11T23:23:10.999Z,-0.60
2023-03-11T23:25:38.794Z,-0.70
2023-03-11T23:28:06.317Z,-0.70
2023-03-11T23:30:33.253Z,-0.70
2023-03-11T23:33:02.693Z,-0.70
2023-03-11T23:35:29.569Z,-0.80
2023-03-11T23:37:56.215Z,-0.70
2023-03-11T23:40:22.974Z,-0.70
2023-03-11T23:42:50.685Z,-0.70
2023-03-11T23:45:18.814Z,-0.70
2023-03-11T23:47:45.531Z,-0.70
2023-03-11T23:50:12.476Z,-0.70
2023-03-11T23:52:39.122Z,-0.70
2023-03-11T23:55:06.317Z,-0.70
2023-03-11T23:57:37.530Z,-0.80
